sensor_id;sensor_type;location;lat;lon;timestamp;P1;durP1;ratioP1;P2;durP2;ratioP2
16385;SDS011;8302;51.154;4.456;2022-07-23T00:00:34;6.93;;;3.55;;
16385;SDS011;8302;51.154;4.456;2022-07-23T00:03:05;3.97;;;3.08;;
16385;SDS011;8302;51.154;4.456;2022-07-23T00:05:34;4.18;;;3.13;;
16385;SDS011;8302;51.154;4.456;2022-07-23T00:08:04;3.35;;;3.03;;
16385;SDS011;8302;51.154;4.456;2022-07-23T00:10:39;5.13;;;3.38;;
16385;SDS011;8302;51.154;4.456;2022-07-23T00:13:07;4.82;;;3.35;;
16385;SDS011;8302;51.154;4.456;2022-07-23T00:15:35;4.22;;;2.85;;
16385;SDS011;8302;51.154;4.456;2022-07-23T00:18:03;3.40;;;2.90;;
16385;SDS011;8302;51.154;4.456;2022-07-23T00:20:31;5.90;;;3.13;;
16385;SDS011;8302;51.154;4.456;2022-07-23T00:23:01;5.78;;;3.20;;
16385;SDS011;8302;51.154;4.456;2022-07-23T00:25:29;3.47;;;2.92;;
16385;SDS011;8302;51.154;4.456;2022-07-23T00:27:58;4.95;;;3.00;;
16385;SDS011;8302;51.154;4.456;2022-07-23T00:30:26;3.42;;;2.80;;
16385;SDS011;8302;51.154;4.456;2022-07-23T00:32:57;5.45;;;3.05;;
16385;SDS011;8302;51.154;4.456;2022-07-23T00:35:26;7.10;;;3.20;;
16385;SDS011;8302;51.154;4.456;2022-07-23T00:37:54;6.70;;;2.85;;
16385;SDS011;8302;51.154;4.456;2022-07-23T00:40:24;4.93;;;3.38;;
16385;SDS011;8302;51.154;4.456;2022-07-23T00:42:52;5.50;;;3.42;;
16385;SDS011;8302;51.154;4.456;2022-07-23T00:45:20;3.58;;;2.63;;
16385;SDS011;8302;51.154;4.456;2022-07-23T00:47:48;3.78;;;2.65;;
16385;SDS011;8302;51.154;4.456;2022-07-23T00:50:16;4.22;;;3.00;;
16385;SDS011;8302;51.154;4.456;2022-07-23T00:52:44;7.13;;;3.25;;
16385;SDS011;8302;51.154;4.456;2022-07-23T00:55:12;5.35;;;3.08;;
16385;SDS011;8302;51.154;4.456;2022-07-23T00:57:42;4.78;;;3.03;;
16385;SDS011;8302;51.154;4.456;2022-07-23T01:00:11;7.90;;;3.08;;
16385;SDS011;8302;51.154;4.456;2022-07-23T01:02:40;4.25;;;3.38;;
16385;SDS011;8302;51.154;4.456;2022-07-23T01:05:09;4.97;;;2.92;;
16385;SDS011;8302;51.154;4.456;2022-07-23T01:07:37;7.38;;;3.17;;
16385;SDS011;8302;51.154;4.456;2022-07-23T01:10:05;6.65;;;3.63;;
16385;SDS011;8302;51.154;4.456;2022-07-23T01:12:55;6.15;;;3.22;;
16385;SDS011;8302;51.154;4.456;2022-07-23T01:15:23;5.35;;;3.25;;
16385;SDS011;8302;51.154;4.456;2022-07-23T01:17:51;5.47;;;3.10;;
16385;SDS011;8302;51.154;4.456;2022-07-23T01:20:20;3.33;;;2.30;;
16385;SDS011;8302;51.154;4.456;2022-07-23T01:22:49;3.55;;;2.83;;
16385;SDS011;8302;51.154;4.456;2022-07-23T01:25:18;6.95;;;3.45;;
16385;SDS011;8302;51.154;4.456;2022-07-23T01:27:53;6.40;;;3.20;;
16385;SDS011;8302;51.154;4.456;2022-07-23T01:30:22;5.53;;;2.92;;
16385;SDS011;8302;51.154;4.456;2022-07-23T01:32:51;4.70;;;3.10;;
16385;SDS011;8302;51.154;4.456;2022-07-23T01:35:19;5.70;;;3.08;;
16385;SDS011;8302;51.154;4.456;2022-07-23T01:37:50;7.60;;;2.88;;
16385;SDS011;8302;51.154;4.456;2022-07-23T01:40:18;5.70;;;3.28;;
16385;SDS011;8302;51.154;4.456;2022-07-23T01:42:49;5.72;;;3.25;;
16385;SDS011;8302;51.154;4.456;2022-07-23T01:45:18;5.28;;;3.50;;
16385;SDS011;8302;51.154;4.456;2022-07-23T01:47:49;9.60;;;3.40;;
16385;SDS011;8302;51.154;4.456;2022-07-23T01:50:17;5.05;;;3.05;;
16385;SDS011;8302;51.154;4.456;2022-07-23T01:53:05;5.63;;;3.15;;
16385;SDS011;8302;51.154;4.456;2022-07-23T01:55:35;7.25;;;2.97;;
16385;SDS011;8302;51.154;4.456;2022-07-23T01:58:04;5.43;;;2.78;;
16385;SDS011;8302;51.154;4.456;2022-07-23T02:00:33;3.80;;;2.90;;
16385;SDS011;8302;51.154;4.456;2022-07-23T02:03:01;7.18;;;3.30;;
16385;SDS011;8302;51.154;4.456;2022-07-23T02:05:29;6.40;;;2.88;;
16385;SDS011;8302;51.154;4.456;2022-07-23T02:07:58;7.88;;;3.22;;
16385;SDS011;8302;51.154;4.456;2022-07-23T02:10:28;4.63;;;3.33;;
16385;SDS011;8302;51.154;4.456;2022-07-23T02:12:55;5.53;;;3.45;;
16385;SDS011;8302;51.154;4.456;2022-07-23T02:15:23;6.43;;;3.50;;
16385;SDS011;8302;51.154;4.456;2022-07-23T02:17:51;5.80;;;2.95;;
16385;SDS011;8302;51.154;4.456;2022-07-23T02:20:19;5.82;;;2.97;;
16385;SDS011;8302;51.154;4.456;2022-07-23T02:22:47;5.18;;;3.33;;
16385;SDS011;8302;51.154;4.456;2022-07-23T02:25:15;4.00;;;3.47;;
16385;SDS011;8302;51.154;4.456;2022-07-23T02:27:45;4.95;;;3.60;;
16385;SDS011;8302;51.154;4.456;2022-07-23T02:30:13;4.18;;;3.00;;
16385;SDS011;8302;51.154;4.456;2022-07-23T02:32:41;4.10;;;3.30;;
16385;SDS011;8302;51.154;4.456;2022-07-23T02:35:10;4.75;;;3.05;;
16385;SDS011;8302;51.154;4.456;2022-07-23T02:37:38;5.90;;;3.08;;
16385;SDS011;8302;51.154;4.456;2022-07-23T02:40:06;6.45;;;3.65;;
16385;SDS011;8302;51.154;4.456;2022-07-23T02:42:37;5.03;;;3.20;;
16385;SDS011;8302;51.154;4.456;2022-07-23T02:45:08;5.75;;;3.30;;
16385;SDS011;8302;51.154;4.456;2022-07-23T02:47:38;5.30;;;3.50;;
16385;SDS011;8302;51.154;4.456;2022-07-23T02:50:06;4.40;;;3.47;;
16385;SDS011;8302;51.154;4.456;2022-07-23T02:52:35;4.45;;;3.08;;
16385;SDS011;8302;51.154;4.456;2022-07-23T02:55:03;3.88;;;3.28;;
16385;SDS011;8302;51.154;4.456;2022-07-23T02:57:31;8.77;;;3.58;;
16385;SDS011;8302;51.154;4.456;2022-07-23T03:00:00;4.57;;;3.45;;
16385;SDS011;8302;51.154;4.456;2022-07-23T03:02:29;9.02;;;3.53;;
16385;SDS011;8302;51.154;4.456;2022-07-23T03:04:58;5.18;;;3.17;;
16385;SDS011;8302;51.154;4.456;2022-07-23T03:07:25;13.27;;;5.18;;
16385;SDS011;8302;51.154;4.456;2022-07-23T03:09:53;6.60;;;3.60;;
16385;SDS011;8302;51.154;4.456;2022-07-23T03:12:22;8.57;;;3.58;;
16385;SDS011;8302;51.154;4.456;2022-07-23T03:14:50;6.93;;;3.35;;
16385;SDS011;8302;51.154;4.456;2022-07-23T03:17:19;5.32;;;3.05;;
16385;SDS011;8302;51.154;4.456;2022-07-23T03:19:48;4.78;;;3.05;;
16385;SDS011;8302;51.154;4.456;2022-07-23T03:22:16;5.70;;;3.00;;
16385;SDS011;8302;51.154;4.456;2022-07-23T03:24:44;4.22;;;3.25;;
16385;SDS011;8302;51.154;4.456;2022-07-23T03:27:34;5.13;;;3.00;;
16385;SDS011;8302;51.154;4.456;2022-07-23T03:30:02;3.00;;;2.67;;
16385;SDS011;8302;51.154;4.456;2022-07-23T03:32:32;6.65;;;3.50;;
16385;SDS011;8302;51.154;4.456;2022-07-23T03:35:02;6.30;;;3.25;;
16385;SDS011;8302;51.154;4.456;2022-07-23T03:37:33;5.50;;;2.65;;
16385;SDS011;8302;51.154;4.456;2022-07-23T03:40:01;4.50;;;2.90;;
16385;SDS011;8302;51.154;4.456;2022-07-23T03:42:30;7.85;;;3.30;;
16385;SDS011;8302;51.154;4.456;2022-07-23T03:44:57;8.05;;;3.30;;
16385;SDS011;8302;51.154;4.456;2022-07-23T03:47:25;4.82;;;3.20;;
16385;SDS011;8302;51.154;4.456;2022-07-23T03:49:53;4.40;;;2.85;;
16385;SDS011;8302;51.154;4.456;2022-07-23T03:52:22;6.32;;;3.17;;
16385;SDS011;8302;51.154;4.456;2022-07-23T03:54:51;6.40;;;3.22;;
16385;SDS011;8302;51.154;4.456;2022-07-23T03:57:21;4.25;;;2.67;;
16385;SDS011;8302;51.154;4.456;2022-07-23T03:59:49;8.93;;;3.10;;
16385;SDS011;8302;51.154;4.456;2022-07-23T04:02:17;4.70;;;3.20;;
16385;SDS011;8302;51.154;4.456;2022-07-23T04:04:45;3.53;;;2.80;;
16385;SDS011;8302;51.154;4.456;2022-07-23T04:07:15;3.95;;;3.00;;
16385;SDS011;8302;51.154;4.456;2022-07-23T04:09:45;3.35;;;3.00;;
16385;SDS011;8302;51.154;4.456;2022-07-23T04:12:13;7.25;;;3.20;;
16385;SDS011;8302;51.154;4.456;2022-07-23T04:14:41;6.80;;;3.13;;
16385;SDS011;8302;51.154;4.456;2022-07-23T04:17:09;4.97;;;3.13;;
16385;SDS011;8302;51.154;4.456;2022-07-23T04:19:37;5.68;;;3.08;;
16385;SDS011;8302;51.154;4.456;2022-07-23T04:22:09;4.63;;;3.58;;
16385;SDS011;8302;51.154;4.456;2022-07-23T04:24:38;3.25;;;2.30;;
16385;SDS011;8302;51.154;4.456;2022-07-23T04:27:09;6.45;;;3.03;;
16385;SDS011;8302;51.154;4.456;2022-07-23T04:29:37;4.20;;;3.00;;
16385;SDS011;8302;51.154;4.456;2022-07-23T04:32:05;5.60;;;2.53;;
16385;SDS011;8302;51.154;4.456;2022-07-23T04:34:34;5.07;;;3.75;;
16385;SDS011;8302;51.154;4.456;2022-07-23T04:37:02;3.83;;;2.88;;
16385;SDS011;8302;51.154;4.456;2022-07-23T04:39:31;4.72;;;3.00;;
16385;SDS011;8302;51.154;4.456;2022-07-23T04:41:59;4.72;;;3.00;;
16385;SDS011;8302;51.154;4.456;2022-07-23T04:44:30;7.18;;;2.95;;
16385;SDS011;8302;51.154;4.456;2022-07-23T04:47:01;3.97;;;2.95;;
16385;SDS011;8302;51.154;4.456;2022-07-23T04:49:28;5.60;;;3.10;;
16385;SDS011;8302;51.154;4.456;2022-07-23T04:51:58;3.83;;;2.90;;
16385;SDS011;8302;51.154;4.456;2022-07-23T04:54:29;3.97;;;3.10;;
16385;SDS011;8302;51.154;4.456;2022-07-23T04:56:57;4.60;;;3.00;;
16385;SDS011;8302;51.154;4.456;2022-07-23T04:59:26;4.43;;;3.33;;
16385;SDS011;8302;51.154;4.456;2022-07-23T05:02:00;7.78;;;3.30;;
16385;SDS011;8302;51.154;4.456;2022-07-23T05:04:29;4.63;;;2.95;;
16385;SDS011;8302;51.154;4.456;2022-07-23T05:06:58;3.88;;;2.92;;
16385;SDS011;8302;51.154;4.456;2022-07-23T05:09:26;3.75;;;2.90;;
16385;SDS011;8302;51.154;4.456;2022-07-23T05:11:54;4.70;;;3.05;;
16385;SDS011;8302;51.154;4.456;2022-07-23T05:14:22;5.50;;;3.30;;
16385;SDS011;8302;51.154;4.456;2022-07-23T05:16:51;5.38;;;3.15;;
16385;SDS011;8302;51.154;4.456;2022-07-23T05:19:23;4.63;;;3.22;;
16385;SDS011;8302;51.154;4.456;2022-07-23T05:21:52;4.13;;;3.08;;
16385;SDS011;8302;51.154;4.456;2022-07-23T05:24:20;6.93;;;3.70;;
16385;SDS011;8302;51.154;4.456;2022-07-23T05:26:49;5.93;;;2.97;;
16385;SDS011;8302;51.154;4.456;2022-07-23T05:29:18;4.57;;;3.15;;
16385;SDS011;8302;51.154;4.456;2022-07-23T05:31:46;4.93;;;3.60;;
16385;SDS011;8302;51.154;4.456;2022-07-23T05:34:14;4.20;;;3.33;;
16385;SDS011;8302;51.154;4.456;2022-07-23T05:36:46;6.25;;;3.33;;
16385;SDS011;8302;51.154;4.456;2022-07-23T05:39:15;6.97;;;3.28;;
16385;SDS011;8302;51.154;4.456;2022-07-23T05:41:43;6.00;;;3.72;;
16385;SDS011;8302;51.154;4.456;2022-07-23T05:44:12;4.53;;;2.85;;
16385;SDS011;8302;51.154;4.456;2022-07-23T05:46:42;6.72;;;3.35;;
16385;SDS011;8302;51.154;4.456;2022-07-23T05:49:18;7.95;;;3.28;;
16385;SDS011;8302;51.154;4.456;2022-07-23T05:52:16;5.43;;;2.53;;
16385;SDS011;8302;51.154;4.456;2022-07-23T05:55:23;3.10;;;2.47;;
16385;SDS011;8302;51.154;4.456;2022-07-23T05:57:51;4.57;;;2.83;;
16385;SDS011;8302;51.154;4.456;2022-07-23T06:00:20;4.75;;;3.45;;
16385;SDS011;8302;51.154;4.456;2022-07-23T06:02:49;4.40;;;2.58;;
16385;SDS011;8302;51.154;4.456;2022-07-23T06:05:22;5.72;;;3.03;;
16385;SDS011;8302;51.154;4.456;2022-07-23T06:07:53;4.63;;;2.97;;
16385;SDS011;8302;51.154;4.456;2022-07-23T06:10:22;3.63;;;2.88;;
16385;SDS011;8302;51.154;4.456;2022-07-23T06:12:50;3.83;;;2.92;;
16385;SDS011;8302;51.154;4.456;2022-07-23T06:15:24;3.55;;;2.88;;
16385;SDS011;8302;51.154;4.456;2022-07-23T06:17:53;5.68;;;3.20;;
16385;SDS011;8302;51.154;4.456;2022-07-23T06:20:22;10.15;;;3.70;;
16385;SDS011;8302;51.154;4.456;2022-07-23T06:22:50;5.78;;;2.70;;
16385;SDS011;8302;51.154;4.456;2022-07-23T06:25:20;5.90;;;3.10;;
16385;SDS011;8302;51.154;4.456;2022-07-23T06:27:48;5.25;;;2.58;;
16385;SDS011;8302;51.154;4.456;2022-07-23T06:30:16;4.07;;;2.72;;
16385;SDS011;8302;51.154;4.456;2022-07-23T06:32:46;7.00;;;3.25;;
16385;SDS011;8302;51.154;4.456;2022-07-23T06:35:15;4.32;;;3.05;;
16385;SDS011;8302;51.154;4.456;2022-07-23T06:37:45;4.95;;;2.85;;
16385;SDS011;8302;51.154;4.456;2022-07-23T06:40:15;4.30;;;3.03;;
16385;SDS011;8302;51.154;4.456;2022-07-23T06:42:44;4.70;;;3.25;;
16385;SDS011;8302;51.154;4.456;2022-07-23T06:45:20;6.15;;;2.75;;
16385;SDS011;8302;51.154;4.456;2022-07-23T06:47:49;3.90;;;2.85;;
16385;SDS011;8302;51.154;4.456;2022-07-23T06:50:17;4.85;;;3.35;;
16385;SDS011;8302;51.154;4.456;2022-07-23T06:52:48;7.75;;;3.53;;
16385;SDS011;8302;51.154;4.456;2022-07-23T06:55:16;7.07;;;2.80;;
16385;SDS011;8302;51.154;4.456;2022-07-23T06:57:45;4.28;;;3.20;;
16385;SDS011;8302;51.154;4.456;2022-07-23T07:00:13;3.03;;;2.45;;
16385;SDS011;8302;51.154;4.456;2022-07-23T07:02:41;4.78;;;2.58;;
16385;SDS011;8302;51.154;4.456;2022-07-23T07:05:09;5.65;;;3.08;;
16385;SDS011;8302;51.154;4.456;2022-07-23T07:07:38;3.40;;;2.53;;
16385;SDS011;8302;51.154;4.456;2022-07-23T07:10:06;3.15;;;1.83;;
16385;SDS011;8302;51.154;4.456;2022-07-23T07:12:41;6.55;;;2.60;;
16385;SDS011;8302;51.154;4.456;2022-07-23T07:15:11;4.85;;;2.78;;
16385;SDS011;8302;51.154;4.456;2022-07-23T07:17:40;3.05;;;2.50;;
16385;SDS011;8302;51.154;4.456;2022-07-23T07:20:09;5.25;;;2.78;;
16385;SDS011;8302;51.154;4.456;2022-07-23T07:22:37;5.63;;;2.58;;
16385;SDS011;8302;51.154;4.456;2022-07-23T07:25:06;3.65;;;2.17;;
16385;SDS011;8302;51.154;4.456;2022-07-23T07:27:34;4.15;;;2.72;;
16385;SDS011;8302;51.154;4.456;2022-07-23T07:30:02;3.47;;;1.98;;
16385;SDS011;8302;51.154;4.456;2022-07-23T07:32:32;3.55;;;2.40;;
16385;SDS011;8302;51.154;4.456;2022-07-23T07:35:20;4.93;;;2.45;;
16385;SDS011;8302;51.154;4.456;2022-07-23T07:37:48;4.05;;;2.83;;
16385;SDS011;8302;51.154;4.456;2022-07-23T07:40:16;5.95;;;2.53;;
16385;SDS011;8302;51.154;4.456;2022-07-23T07:42:44;3.10;;;2.28;;
16385;SDS011;8302;51.154;4.456;2022-07-23T07:45:12;3.97;;;2.90;;
16385;SDS011;8302;51.154;4.456;2022-07-23T07:47:42;4.05;;;2.67;;
16385;SDS011;8302;51.154;4.456;2022-07-23T07:50:10;7.30;;;2.83;;
16385;SDS011;8302;51.154;4.456;2022-07-23T07:52:38;5.10;;;2.33;;
16385;SDS011;8302;51.154;4.456;2022-07-23T07:55:07;3.30;;;2.40;;
16385;SDS011;8302;51.154;4.456;2022-07-23T07:57:36;3.70;;;2.40;;
16385;SDS011;8302;51.154;4.456;2022-07-23T08:00:04;4.28;;;2.67;;
16385;SDS011;8302;51.154;4.456;2022-07-23T08:02:39;4.20;;;2.75;;
16385;SDS011;8302;51.154;4.456;2022-07-23T08:05:09;5.40;;;3.17;;
16385;SDS011;8302;51.154;4.456;2022-07-23T08:07:38;3.65;;;2.67;;
16385;SDS011;8302;51.154;4.456;2022-07-23T08:10:07;4.22;;;2.90;;
16385;SDS011;8302;51.154;4.456;2022-07-23T08:12:42;6.10;;;3.22;;
16385;SDS011;8302;51.154;4.456;2022-07-23T08:15:12;5.35;;;2.85;;
16385;SDS011;8302;51.154;4.456;2022-07-23T08:17:43;4.85;;;2.72;;
16385;SDS011;8302;51.154;4.456;2022-07-23T08:20:15;5.32;;;3.00;;
16385;SDS011;8302;51.154;4.456;2022-07-23T08:22:44;4.03;;;2.95;;
16385;SDS011;8302;51.154;4.456;2022-07-23T08:25:12;6.15;;;3.00;;
16385;SDS011;8302;51.154;4.456;2022-07-23T08:27:40;3.45;;;2.67;;
16385;SDS011;8302;51.154;4.456;2022-07-23T08:30:08;3.17;;;2.45;;
16385;SDS011;8302;51.154;4.456;2022-07-23T08:32:53;7.20;;;3.47;;
16385;SDS011;8302;51.154;4.456;2022-07-23T08:35:23;5.80;;;3.38;;
16385;SDS011;8302;51.154;4.456;2022-07-23T08:37:51;4.72;;;2.53;;
16385;SDS011;8302;51.154;4.456;2022-07-23T08:40:19;3.13;;;2.40;;
16385;SDS011;8302;51.154;4.456;2022-07-23T08:42:48;6.30;;;3.03;;
16385;SDS011;8302;51.154;4.456;2022-07-23T08:45:17;7.65;;;2.70;;
16385;SDS011;8302;51.154;4.456;2022-07-23T08:47:45;3.78;;;2.75;;
16385;SDS011;8302;51.154;4.456;2022-07-23T08:50:19;4.20;;;1.98;;
16385;SDS011;8302;51.154;4.456;2022-07-23T08:52:49;4.30;;;2.20;;
16385;SDS011;8302;51.154;4.456;2022-07-23T08:55:17;4.50;;;2.80;;
16385;SDS011;8302;51.154;4.456;2022-07-23T08:57:49;4.88;;;2.30;;
16385;SDS011;8302;51.154;4.456;2022-07-23T09:00:18;6.10;;;2.90;;
16385;SDS011;8302;51.154;4.456;2022-07-23T09:02:47;7.40;;;2.70;;
16385;SDS011;8302;51.154;4.456;2022-07-23T09:05:15;4.72;;;2.42;;
16385;SDS011;8302;51.154;4.456;2022-07-23T09:10:32;4.40;;;2.30;;
16385;SDS011;8302;51.154;4.456;2022-07-23T09:13:19;4.95;;;2.50;;
16385;SDS011;8302;51.154;4.456;2022-07-23T09:15:50;6.40;;;2.25;;
16385;SDS011;8302;51.154;4.456;2022-07-23T09:18:19;4.78;;;1.88;;
16385;SDS011;8302;51.154;4.456;2022-07-23T09:21:05;3.67;;;2.10;;
16385;SDS011;8302;51.154;4.456;2022-07-23T09:23:36;2.63;;;1.88;;
16385;SDS011;8302;51.154;4.456;2022-07-23T09:26:09;3.58;;;2.30;;
16385;SDS011;8302;51.154;4.456;2022-07-23T09:28:51;5.38;;;2.60;;
16385;SDS011;8302;51.154;4.456;2022-07-23T09:31:20;3.53;;;1.63;;
16385;SDS011;8302;51.154;4.456;2022-07-23T09:33:48;2.63;;;1.85;;
16385;SDS011;8302;51.154;4.456;2022-07-23T09:36:19;2.45;;;1.70;;
16385;SDS011;8302;51.154;4.456;2022-07-23T09:38:54;1.98;;;1.52;;
16385;SDS011;8302;51.154;4.456;2022-07-23T09:41:23;7.25;;;2.35;;
16385;SDS011;8302;51.154;4.456;2022-07-23T09:43:55;3.30;;;1.75;;
16385;SDS011;8302;51.154;4.456;2022-07-23T09:46:24;4.07;;;1.67;;
16385;SDS011;8302;51.154;4.456;2022-07-23T09:48:53;2.92;;;1.70;;
16385;SDS011;8302;51.154;4.456;2022-07-23T09:51:23;3.22;;;1.70;;
16385;SDS011;8302;51.154;4.456;2022-07-23T09:53:55;2.60;;;1.88;;
16385;SDS011;8302;51.154;4.456;2022-07-23T09:56:24;3.70;;;1.80;;
16385;SDS011;8302;51.154;4.456;2022-07-23T09:58:54;4.05;;;1.83;;
16385;SDS011;8302;51.154;4.456;2022-07-23T10:01:29;2.65;;;1.60;;
16385;SDS011;8302;51.154;4.456;2022-07-23T10:04:00;2.65;;;1.77;;
16385;SDS011;8302;51.154;4.456;2022-07-23T10:06:50;2.83;;;1.45;;
16385;SDS011;8302;51.154;4.456;2022-07-23T10:09:50;4.78;;;2.00;;
16385;SDS011;8302;51.154;4.456;2022-07-23T10:12:47;1.75;;;1.27;;
16385;SDS011;8302;51.154;4.456;2022-07-23T10:15:29;1.70;;;1.23;;
16385;SDS011;8302;51.154;4.456;2022-07-23T10:17:57;2.30;;;1.50;;
16385;SDS011;8302;51.154;4.456;2022-07-23T10:20:25;2.33;;;1.48;;
16385;SDS011;8302;51.154;4.456;2022-07-23T10:22:55;2.53;;;1.40;;
16385;SDS011;8302;51.154;4.456;2022-07-23T10:25:29;3.15;;;1.70;;
16385;SDS011;8302;51.154;4.456;2022-07-23T10:28:09;2.97;;;1.63;;
16385;SDS011;8302;51.154;4.456;2022-07-23T10:30:43;2.25;;;1.42;;
16385;SDS011;8302;51.154;4.456;2022-07-23T10:33:15;2.88;;;1.33;;
16385;SDS011;8302;51.154;4.456;2022-07-23T10:35:47;1.88;;;1.60;;
16385;SDS011;8302;51.154;4.456;2022-07-23T10:38:18;4.38;;;1.45;;
16385;SDS011;8302;51.154;4.456;2022-07-23T10:40:55;1.83;;;1.50;;
16385;SDS011;8302;51.154;4.456;2022-07-23T10:43:24;2.70;;;1.40;;
16385;SDS011;8302;51.154;4.456;2022-07-23T10:45:53;2.40;;;1.33;;
16385;SDS011;8302;51.154;4.456;2022-07-23T10:48:22;1.90;;;1.35;;
16385;SDS011;8302;51.154;4.456;2022-07-23T10:51:09;1.73;;;1.33;;
16385;SDS011;8302;51.154;4.456;2022-07-23T10:59:15;0.80;;;0.63;;
16385;SDS011;8302;51.154;4.456;2022-07-23T11:01:43;1.85;;;1.30;;
16385;SDS011;8302;51.154;4.456;2022-07-23T11:04:11;2.92;;;1.35;;
16385;SDS011;8302;51.154;4.456;2022-07-23T11:09:26;1.73;;;1.42;;
16385;SDS011;8302;51.154;4.456;2022-07-23T11:17:25;2.38;;;1.42;;
16385;SDS011;8302;51.154;4.456;2022-07-23T11:22:55;2.28;;;1.67;;
16385;SDS011;8302;51.154;4.456;2022-07-23T11:25:30;1.45;;;1.17;;
16385;SDS011;8302;51.154;4.456;2022-07-23T11:28:10;3.15;;;1.33;;
16385;SDS011;8302;51.154;4.456;2022-07-23T11:30:39;1.88;;;1.42;;
16385;SDS011;8302;51.154;4.456;2022-07-23T11:33:19;3.17;;;1.50;;
16385;SDS011;8302;51.154;4.456;2022-07-23T11:35:49;2.72;;;1.50;;
16385;SDS011;8302;51.154;4.456;2022-07-23T11:38:18;1.77;;;1.40;;
16385;SDS011;8302;51.154;4.456;2022-07-23T11:40:49;2.90;;;1.60;;
16385;SDS011;8302;51.154;4.456;2022-07-23T11:43:19;1.77;;;1.20;;
16385;SDS011;8302;51.154;4.456;2022-07-23T11:45:48;1.92;;;1.17;;
16385;SDS011;8302;51.154;4.456;2022-07-23T11:48:17;2.95;;;1.42;;
16385;SDS011;8302;51.154;4.456;2022-07-23T11:50:47;4.10;;;1.40;;
16385;SDS011;8302;51.154;4.456;2022-07-23T11:53:20;1.60;;;1.30;;
16385;SDS011;8302;51.154;4.456;2022-07-23T11:55:49;1.80;;;1.40;;
16385;SDS011;8302;51.154;4.456;2022-07-23T11:58:17;2.75;;;1.45;;
16385;SDS011;8302;51.154;4.456;2022-07-23T12:00:45;1.50;;;1.15;;
16385;SDS011;8302;51.154;4.456;2022-07-23T12:03:13;3.13;;;1.23;;
16385;SDS011;8302;51.154;4.456;2022-07-23T12:05:41;1.73;;;1.30;;
16385;SDS011;8302;51.154;4.456;2022-07-23T12:08:12;2.50;;;1.65;;
16385;SDS011;8302;51.154;4.456;2022-07-23T12:10:40;3.13;;;1.52;;
16385;SDS011;8302;51.154;4.456;2022-07-23T12:13:09;2.55;;;1.30;;
16385;SDS011;8302;51.154;4.456;2022-07-23T12:15:39;2.13;;;1.30;;
16385;SDS011;8302;51.154;4.456;2022-07-23T12:18:09;2.30;;;1.48;;
16385;SDS011;8302;51.154;4.456;2022-07-23T12:20:41;1.80;;;1.23;;
16385;SDS011;8302;51.154;4.456;2022-07-23T12:23:13;1.85;;;1.15;;
16385;SDS011;8302;51.154;4.456;2022-07-23T12:25:47;1.60;;;1.27;;
16385;SDS011;8302;51.154;4.456;2022-07-23T12:28:16;1.75;;;1.00;;
16385;SDS011;8302;51.154;4.456;2022-07-23T12:30:45;1.30;;;1.20;;
16385;SDS011;8302;51.154;4.456;2022-07-23T12:33:14;2.38;;;1.73;;
16385;SDS011;8302;51.154;4.456;2022-07-23T12:35:43;1.83;;;1.20;;
16385;SDS011;8302;51.154;4.456;2022-07-23T12:38:15;2.83;;;1.48;;
16385;SDS011;8302;51.154;4.456;2022-07-23T12:40:43;2.03;;;1.33;;
16385;SDS011;8302;51.154;4.456;2022-07-23T12:43:17;1.92;;;1.58;;
16385;SDS011;8302;51.154;4.456;2022-07-23T12:45:46;2.00;;;1.70;;
16385;SDS011;8302;51.154;4.456;2022-07-23T12:48:17;1.20;;;1.10;;
16385;SDS011;8302;51.154;4.456;2022-07-23T12:50:54;1.88;;;1.50;;
16385;SDS011;8302;51.154;4.456;2022-07-23T12:53:24;2.00;;;1.48;;
16385;SDS011;8302;51.154;4.456;2022-07-23T12:55:57;3.33;;;1.65;;
16385;SDS011;8302;51.154;4.456;2022-07-23T12:58:46;2.00;;;1.40;;
16385;SDS011;8302;51.154;4.456;2022-07-23T13:01:28;1.92;;;1.50;;
16385;SDS011;8302;51.154;4.456;2022-07-23T13:04:01;2.47;;;1.50;;
16385;SDS011;8302;51.154;4.456;2022-07-23T13:06:38;1.60;;;1.50;;
16385;SDS011;8302;51.154;4.456;2022-07-23T13:09:08;2.05;;;1.58;;
16385;SDS011;8302;51.154;4.456;2022-07-23T13:11:38;3.40;;;1.50;;
16385;SDS011;8302;51.154;4.456;2022-07-23T13:14:06;1.67;;;1.20;;
16385;SDS011;8302;51.154;4.456;2022-07-23T13:16:35;1.27;;;1.17;;
16385;SDS011;8302;51.154;4.456;2022-07-23T13:19:03;2.55;;;1.30;;
16385;SDS011;8302;51.154;4.456;2022-07-23T13:21:38;1.25;;;1.15;;
16385;SDS011;8302;51.154;4.456;2022-07-23T13:24:08;2.30;;;1.67;;
16385;SDS011;8302;51.154;4.456;2022-07-23T13:26:36;1.85;;;1.20;;
16385;SDS011;8302;51.154;4.456;2022-07-23T13:29:04;2.03;;;1.17;;
16385;SDS011;8302;51.154;4.456;2022-07-23T13:31:36;1.55;;;1.33;;
16385;SDS011;8302;51.154;4.456;2022-07-23T13:34:04;1.58;;;1.25;;
16385;SDS011;8302;51.154;4.456;2022-07-23T13:36:52;3.08;;;1.52;;
16385;SDS011;8302;51.154;4.456;2022-07-23T13:39:21;4.22;;;1.95;;
16385;SDS011;8302;51.154;4.456;2022-07-23T13:41:50;1.60;;;1.50;;
16385;SDS011;8302;51.154;4.456;2022-07-23T13:44:18;3.55;;;2.20;;
16385;SDS011;8302;51.154;4.456;2022-07-23T13:46:48;3.47;;;1.98;;
16385;SDS011;8302;51.154;4.456;2022-07-23T13:49:16;2.78;;;1.40;;
16385;SDS011;8302;51.154;4.456;2022-07-23T13:51:45;2.67;;;1.27;;
16385;SDS011;8302;51.154;4.456;2022-07-23T13:54:12;2.53;;;1.70;;
16385;SDS011;8302;51.154;4.456;2022-07-23T13:56:42;1.65;;;1.40;;
16385;SDS011;8302;51.154;4.456;2022-07-23T13:59:10;2.05;;;1.50;;
16385;SDS011;8302;51.154;4.456;2022-07-23T14:01:38;1.95;;;1.70;;
16385;SDS011;8302;51.154;4.456;2022-07-23T14:04:26;6.35;;;1.90;;
16385;SDS011;8302;51.154;4.456;2022-07-23T14:06:54;2.42;;;1.50;;
16385;SDS011;8302;51.154;4.456;2022-07-23T14:09:22;3.30;;;1.88;;
16385;SDS011;8302;51.154;4.456;2022-07-23T14:11:52;4.45;;;1.70;;
16385;SDS011;8302;51.154;4.456;2022-07-23T14:14:20;2.28;;;1.60;;
16385;SDS011;8302;51.154;4.456;2022-07-23T14:16:48;2.92;;;1.70;;
16385;SDS011;8302;51.154;4.456;2022-07-23T14:19:16;4.97;;;2.95;;
16385;SDS011;8302;51.154;4.456;2022-07-23T14:21:44;2.95;;;2.45;;
16385;SDS011;8302;51.154;4.456;2022-07-23T14:24:15;3.30;;;2.33;;
16385;SDS011;8302;51.154;4.456;2022-07-23T14:26:44;3.22;;;2.35;;
16385;SDS011;8302;51.154;4.456;2022-07-23T14:29:14;3.08;;;2.20;;
16385;SDS011;8302;51.154;4.456;2022-07-23T14:31:42;4.35;;;2.75;;
16385;SDS011;8302;51.154;4.456;2022-07-23T14:34:13;4.03;;;3.55;;
16385;SDS011;8302;51.154;4.456;2022-07-23T14:36:41;4.40;;;2.90;;
16385;SDS011;8302;51.154;4.456;2022-07-23T14:39:08;4.03;;;2.90;;
16385;SDS011;8302;51.154;4.456;2022-07-23T14:41:39;3.60;;;2.47;;
16385;SDS011;8302;51.154;4.456;2022-07-23T14:44:07;3.97;;;2.70;;
16385;SDS011;8302;51.154;4.456;2022-07-23T14:46:37;3.70;;;2.80;;
16385;SDS011;8302;51.154;4.456;2022-07-23T14:49:05;4.43;;;3.30;;
16385;SDS011;8302;51.154;4.456;2022-07-23T14:51:34;3.03;;;2.72;;
16385;SDS011;8302;51.154;4.456;2022-07-23T14:54:03;3.38;;;2.90;;
16385;SDS011;8302;51.154;4.456;2022-07-23T14:56:31;4.40;;;3.13;;
16385;SDS011;8302;51.154;4.456;2022-07-23T14:59:00;4.78;;;3.30;;
16385;SDS011;8302;51.154;4.456;2022-07-23T15:01:30;3.53;;;2.88;;
16385;SDS011;8302;51.154;4.456;2022-07-23T15:04:02;4.88;;;3.30;;
16385;SDS011;8302;51.154;4.456;2022-07-23T15:06:50;4.47;;;2.97;;
16385;SDS011;8302;51.154;4.456;2022-07-23T15:09:18;6.85;;;3.22;;
16385;SDS011;8302;51.154;4.456;2022-07-23T15:11:47;4.65;;;3.13;;
16385;SDS011;8302;51.154;4.456;2022-07-23T15:14:15;3.53;;;3.08;;
16385;SDS011;8302;51.154;4.456;2022-07-23T15:16:54;4.28;;;2.70;;
16385;SDS011;8302;51.154;4.456;2022-07-23T15:19:24;4.30;;;3.10;;
16385;SDS011;8302;51.154;4.456;2022-07-23T15:21:56;4.55;;;2.90;;
16385;SDS011;8302;51.154;4.456;2022-07-23T15:24:27;4.13;;;3.50;;
16385;SDS011;8302;51.154;4.456;2022-07-23T15:26:55;5.00;;;3.47;;
16385;SDS011;8302;51.154;4.456;2022-07-23T15:29:23;4.20;;;3.47;;
16385;SDS011;8302;51.154;4.456;2022-07-23T15:31:51;4.50;;;3.00;;
16385;SDS011;8302;51.154;4.456;2022-07-23T15:34:25;5.53;;;3.33;;
16385;SDS011;8302;51.154;4.456;2022-07-23T15:36:53;3.47;;;3.15;;
16385;SDS011;8302;51.154;4.456;2022-07-23T15:39:22;3.97;;;3.25;;